sensor_id;sensor_type;location;lat;lon;timestamp;P1;durP1;ratioP1;P2;durP2;ratioP2
9729;SDS011;4904;49.152;11.004;2022-10-31T00:00:46;10.07;;;4.50;;
9729;SDS011;4904;49.152;11.004;2022-10-31T00:03:14;9.77;;;4.47;;
9729;SDS011;4904;49.152;11.004;2022-10-31T00:05:41;7.10;;;5.10;;
9729;SDS011;4904;49.152;11.004;2022-10-31T00:08:09;6.18;;;4.45;;
9729;SDS011;4904;49.152;11.004;2022-10-31T00:10:37;8.65;;;4.50;;
9729;SDS011;4904;49.152;11.004;2022-10-31T00:13:04;7.97;;;4.90;;
9729;SDS011;4904;49.152;11.004;2022-10-31T00:15:33;7.53;;;5.35;;
9729;SDS011;4904;49.152;11.004;2022-10-31T00:18:01;9.45;;;5.22;;
9729;SDS011;4904;49.152;11.004;2022-10-31T00:20:28;11.07;;;5.15;;
9729;SDS011;4904;49.152;11.004;2022-10-31T00:22:57;10.60;;;5.43;;
9729;SDS011;4904;49.152;11.004;2022-10-31T00:25:24;8.00;;;6.03;;
9729;SDS011;4904;49.152;11.004;2022-10-31T00:27:51;10.77;;;5.90;;
9729;SDS011;4904;49.152;11.004;2022-10-31T00:30:18;6.22;;;4.72;;
9729;SDS011;4904;49.152;11.004;2022-10-31T00:32:47;9.88;;;5.05;;
9729;SDS011;4904;49.152;11.004;2022-10-31T00:35:14;6.70;;;5.00;;
9729;SDS011;4904;49.152;11.004;2022-10-31T00:37:41;11.50;;;5.50;;
9729;SDS011;4904;49.152;11.004;2022-10-31T00:40:08;8.95;;;5.00;;
9729;SDS011;4904;49.152;11.004;2022-10-31T00:42:36;8.27;;;5.13;;
9729;SDS011;4904;49.152;11.004;2022-10-31T00:45:05;7.10;;;4.20;;
9729;SDS011;4904;49.152;11.004;2022-10-31T00:47:32;4.43;;;3.92;;
9729;SDS011;4904;49.152;11.004;2022-10-31T00:50:00;7.72;;;3.63;;
9729;SDS011;4904;49.152;11.004;2022-10-31T00:52:28;4.82;;;3.75;;
9729;SDS011;4904;49.152;11.004;2022-10-31T00:54:54;4.22;;;3.22;;
9729;SDS011;4904;49.152;11.004;2022-10-31T00:57:21;4.32;;;3.67;;
9729;SDS011;4904;49.152;11.004;2022-10-31T00:59:48;7.07;;;4.18;;
9729;SDS011;4904;49.152;11.004;2022-10-31T01:02:15;9.45;;;5.18;;
9729;SDS011;4904;49.152;11.004;2022-10-31T01:04:42;6.57;;;5.20;;
9729;SDS011;4904;49.152;11.004;2022-10-31T01:07:10;6.07;;;4.05;;
9729;SDS011;4904;49.152;11.004;2022-10-31T01:09:38;5.30;;;4.60;;
9729;SDS011;4904;49.152;11.004;2022-10-31T01:12:06;7.00;;;3.92;;
9729;SDS011;4904;49.152;11.004;2022-10-31T01:14:33;6.68;;;5.05;;
9729;SDS011;4904;49.152;11.004;2022-10-31T01:17:00;21.48;;;5.40;;
9729;SDS011;4904;49.152;11.004;2022-10-31T01:19:27;37.55;;;5.00;;
9729;SDS011;4904;49.152;11.004;2022-10-31T01:21:53;8.07;;;4.72;;
9729;SDS011;4904;49.152;11.004;2022-10-31T01:24:22;13.20;;;5.18;;
9729;SDS011;4904;49.152;11.004;2022-10-31T01:26:49;8.02;;;4.45;;
9729;SDS011;4904;49.152;11.004;2022-10-31T01:29:16;7.43;;;4.85;;
9729;SDS011;4904;49.152;11.004;2022-10-31T01:31:43;7.65;;;4.65;;
9729;SDS011;4904;49.152;11.004;2022-10-31T01:34:10;6.05;;;4.80;;
9729;SDS011;4904;49.152;11.004;2022-10-31T01:36:40;14.23;;;5.30;;
9729;SDS011;4904;49.152;11.004;2022-10-31T01:39:09;7.88;;;5.38;;
9729;SDS011;4904;49.152;11.004;2022-10-31T01:41:40;13.05;;;5.78;;
9729;SDS011;4904;49.152;11.004;2022-10-31T01:47:13;18.23;;;5.32;;
9729;SDS011;4904;49.152;11.004;2022-10-31T01:49:44;9.45;;;4.97;;
9729;SDS011;4904;49.152;11.004;2022-10-31T01:52:14;7.25;;;4.68;;
9729;SDS011;4904;49.152;11.004;2022-10-31T01:54:47;15.93;;;5.50;;
9729;SDS011;4904;49.152;11.004;2022-10-31T01:57:19;23.15;;;6.25;;
9729;SDS011;4904;49.152;11.004;2022-10-31T01:59:47;39.70;;;6.40;;
9729;SDS011;4904;49.152;11.004;2022-10-31T02:02:17;24.08;;;5.78;;
9729;SDS011;4904;49.152;11.004;2022-10-31T02:04:44;21.00;;;5.65;;
9729;SDS011;4904;49.152;11.004;2022-10-31T02:07:14;14.60;;;5.47;;
9729;SDS011;4904;49.152;11.004;2022-10-31T02:09:46;25.38;;;5.10;;
9729;SDS011;4904;49.152;11.004;2022-10-31T02:12:15;4.18;;;3.70;;
9729;SDS011;4904;49.152;11.004;2022-10-31T02:14:45;8.93;;;4.25;;
9729;SDS011;4904;49.152;11.004;2022-10-31T02:17:13;14.57;;;4.05;;
9729;SDS011;4904;49.152;11.004;2022-10-31T02:19:40;4.57;;;3.50;;
9729;SDS011;4904;49.152;11.004;2022-10-31T02:22:15;3.88;;;3.47;;
9729;SDS011;4904;49.152;11.004;2022-10-31T02:24:46;3.42;;;3.13;;
9729;SDS011;4904;49.152;11.004;2022-10-31T02:27:33;3.10;;;2.90;;
9729;SDS011;4904;49.152;11.004;2022-10-31T02:30:19;5.45;;;3.40;;
9729;SDS011;4904;49.152;11.004;2022-10-31T02:33:01;3.80;;;3.40;;
9729;SDS011;4904;49.152;11.004;2022-10-31T02:35:37;4.03;;;3.63;;
9729;SDS011;4904;49.152;11.004;2022-10-31T02:38:12;4.00;;;3.70;;
9729;SDS011;4904;49.152;11.004;2022-10-31T02:40:48;4.30;;;3.67;;
9729;SDS011;4904;49.152;11.004;2022-10-31T02:43:25;4.85;;;4.30;;
9729;SDS011;4904;49.152;11.004;2022-10-31T02:45:56;5.57;;;4.10;;
9729;SDS011;4904;49.152;11.004;2022-10-31T02:48:30;5.25;;;3.83;;
9729;SDS011;4904;49.152;11.004;2022-10-31T02:51:01;4.78;;;3.80;;
9729;SDS011;4904;49.152;11.004;2022-10-31T02:53:31;7.50;;;3.72;;
9729;SDS011;4904;49.152;11.004;2022-10-31T02:56:00;5.20;;;3.97;;
9729;SDS011;4904;49.152;11.004;2022-10-31T02:58:31;4.55;;;3.90;;
9729;SDS011;4904;49.152;11.004;2022-10-31T03:01:11;5.55;;;4.60;;
9729;SDS011;4904;49.152;11.004;2022-10-31T03:03:54;4.20;;;3.80;;
9729;SDS011;4904;49.152;11.004;2022-10-31T03:06:33;4.95;;;3.65;;
9729;SDS011;4904;49.152;11.004;2022-10-31T03:09:06;4.70;;;3.38;;
9729;SDS011;4904;49.152;11.004;2022-10-31T03:11:41;5.47;;;4.07;;
9729;SDS011;4904;49.152;11.004;2022-10-31T03:14:12;6.75;;;4.18;;
9729;SDS011;4904;49.152;11.004;2022-10-31T03:16:45;6.20;;;4.30;;
9729;SDS011;4904;49.152;11.004;2022-10-31T03:19:16;4.65;;;3.63;;
9729;SDS011;4904;49.152;11.004;2022-10-31T03:21:46;5.72;;;4.20;;
9729;SDS011;4904;49.152;11.004;2022-10-31T03:24:16;12.00;;;6.45;;
9729;SDS011;4904;49.152;11.004;2022-10-31T03:26:46;8.32;;;5.70;;
9729;SDS011;4904;49.152;11.004;2022-10-31T03:29:16;12.50;;;9.27;;
9729;SDS011;4904;49.152;11.004;2022-10-31T03:31:47;11.82;;;7.80;;
9729;SDS011;4904;49.152;11.004;2022-10-31T03:34:19;7.95;;;6.60;;
9729;SDS011;4904;49.152;11.004;2022-10-31T03:36:47;7.30;;;5.22;;
9729;SDS011;4904;49.152;11.004;2022-10-31T03:39:17;6.30;;;4.95;;
9729;SDS011;4904;49.152;11.004;2022-10-31T03:41:47;8.63;;;5.60;;
9729;SDS011;4904;49.152;11.004;2022-10-31T03:44:20;12.00;;;5.53;;
9729;SDS011;4904;49.152;11.004;2022-10-31T03:46:48;6.93;;;4.97;;
9729;SDS011;4904;49.152;11.004;2022-10-31T03:49:16;7.88;;;5.20;;
9729;SDS011;4904;49.152;11.004;2022-10-31T03:51:45;7.07;;;4.30;;
9729;SDS011;4904;49.152;11.004;2022-10-31T03:54:17;7.18;;;4.22;;
9729;SDS011;4904;49.152;11.004;2022-10-31T03:56:50;7.18;;;4.45;;
9729;SDS011;4904;49.152;11.004;2022-10-31T03:59:20;5.72;;;3.58;;
9729;SDS011;4904;49.152;11.004;2022-10-31T04:01:53;5.90;;;4.20;;
9729;SDS011;4904;49.152;11.004;2022-10-31T04:04:23;5.97;;;3.70;;
9729;SDS011;4904;49.152;11.004;2022-10-31T04:06:53;7.40;;;4.00;;
9729;SDS011;4904;49.152;11.004;2022-10-31T04:09:22;6.57;;;4.68;;
9729;SDS011;4904;49.152;11.004;2022-10-31T04:11:53;5.18;;;4.60;;
9729;SDS011;4904;49.152;11.004;2022-10-31T04:14:23;5.55;;;4.03;;
9729;SDS011;4904;49.152;11.004;2022-10-31T04:16:52;6.43;;;3.78;;
9729;SDS011;4904;49.152;11.004;2022-10-31T04:19:20;7.57;;;3.78;;
9729;SDS011;4904;49.152;11.004;2022-10-31T04:21:47;8.38;;;3.78;;
9729;SDS011;4904;49.152;11.004;2022-10-31T04:24:15;6.70;;;3.65;;
9729;SDS011;4904;49.152;11.004;2022-10-31T04:26:42;4.88;;;3.92;;
9729;SDS011;4904;49.152;11.004;2022-10-31T04:29:08;6.72;;;3.95;;
9729;SDS011;4904;49.152;11.004;2022-10-31T04:31:35;6.65;;;4.35;;
9729;SDS011;4904;49.152;11.004;2022-10-31T04:34:02;8.40;;;4.47;;
9729;SDS011;4904;49.152;11.004;2022-10-31T04:36:29;15.05;;;10.77;;
9729;SDS011;4904;49.152;11.004;2022-10-31T04:38:56;6.65;;;5.05;;
9729;SDS011;4904;49.152;11.004;2022-10-31T04:41:24;8.65;;;4.60;;
9729;SDS011;4904;49.152;11.004;2022-10-31T04:43:51;10.20;;;4.43;;
9729;SDS011;4904;49.152;11.004;2022-10-31T04:46:18;7.20;;;4.20;;
9729;SDS011;4904;49.152;11.004;2022-10-31T04:48:45;8.77;;;4.40;;
9729;SDS011;4904;49.152;11.004;2022-10-31T04:51:11;6.90;;;4.30;;
9729;SDS011;4904;49.152;11.004;2022-10-31T04:53:38;7.03;;;4.43;;
9729;SDS011;4904;49.152;11.004;2022-10-31T04:56:05;7.15;;;3.92;;
9729;SDS011;4904;49.152;11.004;2022-10-31T04:58:34;5.97;;;4.30;;
9729;SDS011;4904;49.152;11.004;2022-10-31T05:01:01;6.80;;;4.20;;
9729;SDS011;4904;49.152;11.004;2022-10-31T05:03:28;11.70;;;5.40;;
9729;SDS011;4904;49.152;11.004;2022-10-31T05:05:54;12.07;;;6.13;;
9729;SDS011;4904;49.152;11.004;2022-10-31T05:08:21;11.20;;;5.28;;
9729;SDS011;4904;49.152;11.004;2022-10-31T05:10:48;11.77;;;5.13;;
9729;SDS011;4904;49.152;11.004;2022-10-31T05:13:15;7.18;;;5.30;;
9729;SDS011;4904;49.152;11.004;2022-10-31T05:15:43;18.17;;;5.38;;
9729;SDS011;4904;49.152;11.004;2022-10-31T05:18:10;14.55;;;5.55;;
9729;SDS011;4904;49.152;11.004;2022-10-31T05:20:37;19.95;;;6.00;;
9729;SDS011;4904;49.152;11.004;2022-10-31T05:23:03;10.48;;;5.25;;
9729;SDS011;4904;49.152;11.004;2022-10-31T05:25:30;9.98;;;5.75;;
9729;SDS011;4904;49.152;11.004;2022-10-31T05:27:57;11.60;;;6.00;;
9729;SDS011;4904;49.152;11.004;2022-10-31T05:30:25;10.88;;;6.15;;
9729;SDS011;4904;49.152;11.004;2022-10-31T05:32:54;15.05;;;5.60;;
9729;SDS011;4904;49.152;11.004;2022-10-31T05:35:22;18.00;;;5.93;;
9729;SDS011;4904;49.152;11.004;2022-10-31T05:37:51;31.05;;;6.20;;
9729;SDS011;4904;49.152;11.004;2022-10-31T05:40:18;17.38;;;5.80;;
9729;SDS011;4904;49.152;11.004;2022-10-31T05:42:47;11.88;;;5.97;;
9729;SDS011;4904;49.152;11.004;2022-10-31T05:45:17;6.63;;;5.15;;
9729;SDS011;4904;49.152;11.004;2022-10-31T05:47:49;6.45;;;4.82;;
9729;SDS011;4904;49.152;11.004;2022-10-31T05:50:18;6.90;;;4.75;;
9729;SDS011;4904;49.152;11.004;2022-10-31T05:52:45;4.70;;;4.28;;
9729;SDS011;4904;49.152;11.004;2022-10-31T05:55:12;5.03;;;4.45;;
9729;SDS011;4904;49.152;11.004;2022-10-31T05:57:38;6.80;;;4.20;;
9729;SDS011;4904;49.152;11.004;2022-10-31T06:00:06;6.95;;;4.57;;
9729;SDS011;4904;49.152;11.004;2022-10-31T06:02:33;9.45;;;4.45;;
9729;SDS011;4904;49.152;11.004;2022-10-31T06:05:05;4.78;;;4.25;;
9729;SDS011;4904;49.152;11.004;2022-10-31T06:07:34;6.63;;;4.43;;
9729;SDS011;4904;49.152;11.004;2022-10-31T06:10:02;6.47;;;4.35;;
9729;SDS011;4904;49.152;11.004;2022-10-31T06:12:30;5.45;;;3.92;;
9729;SDS011;4904;49.152;11.004;2022-10-31T06:15:02;6.22;;;4.40;;
9729;SDS011;4904;49.152;11.004;2022-10-31T06:17:30;7.47;;;4.72;;
9729;SDS011;4904;49.152;11.004;2022-10-31T06:19:57;6.03;;;4.80;;
9729;SDS011;4904;49.152;11.004;2022-10-31T06:22:24;5.97;;;4.57;;
9729;SDS011;4904;49.152;11.004;2022-10-31T06:24:52;5.63;;;4.15;;
9729;SDS011;4904;49.152;11.004;2022-10-31T06:27:19;5.45;;;3.70;;
9729;SDS011;4904;49.152;11.004;2022-10-31T06:29:46;7.00;;;4.25;;
9729;SDS011;4904;49.152;11.004;2022-10-31T06:32:13;6.95;;;4.10;;
9729;SDS011;4904;49.152;11.004;2022-10-31T06:34:40;5.65;;;4.28;;
9729;SDS011;4904;49.152;11.004;2022-10-31T06:37:08;4.57;;;3.85;;
9729;SDS011;4904;49.152;11.004;2022-10-31T06:39:35;5.80;;;3.65;;
9729;SDS011;4904;49.152;11.004;2022-10-31T06:42:04;6.07;;;4.22;;
9729;SDS011;4904;49.152;11.004;2022-10-31T06:44:31;6.45;;;4.80;;
9729;SDS011;4904;49.152;11.004;2022-10-31T06:46:58;9.55;;;4.90;;
9729;SDS011;4904;49.152;11.004;2022-10-31T06:49:25;5.15;;;4.10;;
9729;SDS011;4904;49.152;11.004;2022-10-31T06:51:52;6.10;;;4.60;;
9729;SDS011;4904;49.152;11.004;2022-10-31T06:54:19;5.50;;;4.10;;
9729;SDS011;4904;49.152;11.004;2022-10-31T06:56:46;9.63;;;5.25;;
9729;SDS011;4904;49.152;11.004;2022-10-31T06:59:14;5.60;;;4.75;;
9729;SDS011;4904;49.152;11.004;2022-10-31T07:01:42;7.03;;;4.70;;
9729;SDS011;4904;49.152;11.004;2022-10-31T07:04:09;7.93;;;4.88;;
9729;SDS011;4904;49.152;11.004;2022-10-31T07:06:36;11.65;;;5.32;;
9729;SDS011;4904;49.152;11.004;2022-10-31T07:09:03;10.20;;;4.30;;
9729;SDS011;4904;49.152;11.004;2022-10-31T07:11:30;7.30;;;4.80;;
9729;SDS011;4904;49.152;11.004;2022-10-31T07:13:57;7.55;;;5.03;;
9729;SDS011;4904;49.152;11.004;2022-10-31T07:16:25;8.48;;;5.25;;
9729;SDS011;4904;49.152;11.004;2022-10-31T07:18:52;8.00;;;4.93;;
9729;SDS011;4904;49.152;11.004;2022-10-31T07:21:19;9.02;;;4.90;;
9729;SDS011;4904;49.152;11.004;2022-10-31T07:23:47;11.10;;;5.90;;
9729;SDS011;4904;49.152;11.004;2022-10-31T07:26:14;9.15;;;5.13;;
9729;SDS011;4904;49.152;11.004;2022-10-31T07:28:41;9.20;;;5.60;;
9729;SDS011;4904;49.152;11.004;2022-10-31T07:31:08;9.55;;;5.40;;
9729;SDS011;4904;49.152;11.004;2022-10-31T07:33:36;8.40;;;5.32;;
9729;SDS011;4904;49.152;11.004;2022-10-31T07:36:03;9.25;;;5.60;;
9729;SDS011;4904;49.152;11.004;2022-10-31T07:38:30;11.05;;;5.45;;
9729;SDS011;4904;49.152;11.004;2022-10-31T07:40:57;10.23;;;5.53;;
9729;SDS011;4904;49.152;11.004;2022-10-31T07:43:24;8.48;;;5.63;;
9729;SDS011;4904;49.152;11.004;2022-10-31T07:45:51;9.68;;;5.30;;
9729;SDS011;4904;49.152;11.004;2022-10-31T07:48:18;8.43;;;5.10;;
9729;SDS011;4904;49.152;11.004;2022-10-31T07:50:47;9.77;;;5.63;;
9729;SDS011;4904;49.152;11.004;2022-10-31T07:53:14;9.38;;;5.55;;
9729;SDS011;4904;49.152;11.004;2022-10-31T07:55:41;9.40;;;6.07;;
9729;SDS011;4904;49.152;11.004;2022-10-31T07:58:09;9.18;;;5.70;;
9729;SDS011;4904;49.152;11.004;2022-10-31T08:00:38;12.85;;;5.72;;
9729;SDS011;4904;49.152;11.004;2022-10-31T08:03:06;9.10;;;5.57;;
9729;SDS011;4904;49.152;11.004;2022-10-31T08:05:35;9.15;;;5.63;;
9729;SDS011;4904;49.152;11.004;2022-10-31T08:08:03;9.43;;;5.80;;
9729;SDS011;4904;49.152;11.004;2022-10-31T08:10:32;7.43;;;5.28;;
9729;SDS011;4904;49.152;11.004;2022-10-31T08:12:59;8.25;;;5.22;;
9729;SDS011;4904;49.152;11.004;2022-10-31T08:15:27;6.95;;;4.90;;
9729;SDS011;4904;49.152;11.004;2022-10-31T08:17:55;9.10;;;5.22;;
9729;SDS011;4904;49.152;11.004;2022-10-31T08:20:21;9.75;;;5.75;;
9729;SDS011;4904;49.152;11.004;2022-10-31T08:22:52;9.23;;;7.78;;
9729;SDS011;4904;49.152;11.004;2022-10-31T08:25:21;10.38;;;6.88;;
9729;SDS011;4904;49.152;11.004;2022-10-31T08:27:49;7.13;;;5.35;;
9729;SDS011;4904;49.152;11.004;2022-10-31T08:30:17;9.70;;;5.05;;
9729;SDS011;4904;49.152;11.004;2022-10-31T08:32:44;8.85;;;5.32;;
9729;SDS011;4904;49.152;11.004;2022-10-31T08:35:11;10.25;;;5.43;;
9729;SDS011;4904;49.152;11.004;2022-10-31T08:37:38;9.15;;;5.40;;
9729;SDS011;4904;49.152;11.004;2022-10-31T08:40:05;11.10;;;5.30;;
9729;SDS011;4904;49.152;11.004;2022-10-31T08:42:34;9.90;;;6.07;;
9729;SDS011;4904;49.152;11.004;2022-10-31T08:45:01;8.18;;;5.82;;
9729;SDS011;4904;49.152;11.004;2022-10-31T08:47:28;7.57;;;5.63;;
9729;SDS011;4904;49.152;11.004;2022-10-31T08:49:55;9.57;;;5.50;;
9729;SDS011;4904;49.152;11.004;2022-10-31T08:52:22;8.90;;;5.43;;
9729;SDS011;4904;49.152;11.004;2022-10-31T08:54:51;12.38;;;6.25;;
9729;SDS011;4904;49.152;11.004;2022-10-31T08:57:18;8.48;;;5.57;;
9729;SDS011;4904;49.152;11.004;2022-10-31T08:59:46;9.38;;;6.05;;
9729;SDS011;4904;49.152;11.004;2022-10-31T09:02:13;9.68;;;5.50;;
9729;SDS011;4904;49.152;11.004;2022-10-31T09:04:40;7.97;;;5.20;;
9729;SDS011;4904;49.152;11.004;2022-10-31T09:07:07;10.98;;;5.63;;
9729;SDS011;4904;49.152;11.004;2022-10-31T09:09:34;7.88;;;5.28;;
9729;SDS011;4904;49.152;11.004;2022-10-31T09:12:00;9.55;;;5.25;;
9729;SDS011;4904;49.152;11.004;2022-10-31T09:14:27;9.27;;;5.47;;
9729;SDS011;4904;49.152;11.004;2022-10-31T09:16:56;7.07;;;5.50;;
9729;SDS011;4904;49.152;11.004;2022-10-31T09:19:23;13.05;;;5.50;;
9729;SDS011;4904;49.152;11.004;2022-10-31T09:21:51;7.80;;;4.95;;
9729;SDS011;4904;49.152;11.004;2022-10-31T09:24:19;7.60;;;5.22;;
9729;SDS011;4904;49.152;11.004;2022-10-31T09:26:46;9.75;;;5.60;;
9729;SDS011;4904;49.152;11.004;2022-10-31T09:29:13;10.13;;;6.90;;
9729;SDS011;4904;49.152;11.004;2022-10-31T09:31:40;10.48;;;6.78;;
9729;SDS011;4904;49.152;11.004;2022-10-31T09:34:08;7.15;;;4.88;;
9729;SDS011;4904;49.152;11.004;2022-10-31T09:36:35;7.53;;;5.50;;
9729;SDS011;4904;49.152;11.004;2022-10-31T09:39:03;10.13;;;5.95;;
9729;SDS011;4904;49.152;11.004;2022-10-31T09:41:31;7.78;;;5.47;;
9729;SDS011;4904;49.152;11.004;2022-10-31T09:44:19;7.55;;;5.18;;
9729;SDS011;4904;49.152;11.004;2022-10-31T09:46:56;9.20;;;6.32;;
9729;SDS011;4904;49.152;11.004;2022-10-31T09:49:33;14.20;;;6.50;;
9729;SDS011;4904;49.152;11.004;2022-10-31T09:52:10;12.55;;;6.43;;
9729;SDS011;4904;49.152;11.004;2022-10-31T09:54:43;9.65;;;6.50;;
9729;SDS011;4904;49.152;11.004;2022-10-31T09:57:12;13.00;;;7.18;;
9729;SDS011;4904;49.152;11.004;2022-10-31T09:59:41;12.10;;;7.38;;
9729;SDS011;4904;49.152;11.004;2022-10-31T10:02:13;12.23;;;6.60;;
9729;SDS011;4904;49.152;11.004;2022-10-31T10:04:46;15.70;;;6.85;;
9729;SDS011;4904;49.152;11.004;2022-10-31T10:07:21;9.45;;;5.63;;
9729;SDS011;4904;49.152;11.004;2022-10-31T10:09:52;16.73;;;6.32;;
9729;SDS011;4904;49.152;11.004;2022-10-31T10:12:23;8.48;;;6.05;;
9729;SDS011;4904;49.152;11.004;2022-10-31T10:15:13;9.07;;;5.57;;
9729;SDS011;4904;49.152;11.004;2022-10-31T10:17:53;9.85;;;5.32;;
9729;SDS011;4904;49.152;11.004;2022-10-31T10:20:33;9.48;;;5.07;;
9729;SDS011;4904;49.152;11.004;2022-10-31T10:23:16;11.77;;;5.45;;
9729;SDS011;4904;49.152;11.004;2022-10-31T10:26:01;10.65;;;5.60;;
9729;SDS011;4904;49.152;11.004;2022-10-31T10:28:32;9.38;;;5.72;;
9729;SDS011;4904;49.152;11.004;2022-10-31T10:31:05;9.07;;;5.00;;
9729;SDS011;4904;49.152;11.004;2022-10-31T10:33:36;9.43;;;5.90;;
9729;SDS011;4904;49.152;11.004;2022-10-31T10:36:08;7.50;;;5.43;;
9729;SDS011;4904;49.152;11.004;2022-10-31T10:38:44;7.65;;;5.18;;
9729;SDS011;4904;49.152;11.004;2022-10-31T10:41:17;10.10;;;5.97;;
9729;SDS011;4904;49.152;11.004;2022-10-31T10:43:48;8.73;;;4.88;;
9729;SDS011;4904;49.152;11.004;2022-10-31T10:46:17;9.55;;;5.53;;
9729;SDS011;4904;49.152;11.004;2022-10-31T10:49:05;10.68;;;5.88;;
9729;SDS011;4904;49.152;11.004;2022-10-31T10:51:42;8.93;;;5.28;;
9729;SDS011;4904;49.152;11.004;2022-10-31T10:54:15;10.82;;;5.47;;
9729;SDS011;4904;49.152;11.004;2022-10-31T10:57:05;13.82;;;5.10;;
9729;SDS011;4904;49.152;11.004;2022-10-31T10:59:42;9.25;;;5.57;;
9729;SDS011;4904;49.152;11.004;2022-10-31T11:02:16;8.95;;;4.75;;
9729;SDS011;4904;49.152;11.004;2022-10-31T11:04:45;7.88;;;5.38;;
9729;SDS011;4904;49.152;11.004;2022-10-31T11:07:16;7.88;;;4.75;;
9729;SDS011;4904;49.152;11.004;2022-10-31T11:09:43;10.02;;;5.07;;
9729;SDS011;4904;49.152;11.004;2022-10-31T11:12:15;7.55;;;5.25;;
9729;SDS011;4904;49.152;11.004;2022-10-31T11:14:46;10.63;;;5.07;;
9729;SDS011;4904;49.152;11.004;2022-10-31T11:17:17;10.25;;;4.88;;
9729;SDS011;4904;49.152;11.004;2022-10-31T11:19:59;10.85;;;5.28;;
9729;SDS011;4904;49.152;11.004;2022-10-31T11:22:28;12.70;;;4.95;;
9729;SDS011;4904;49.152;11.004;2022-10-31T11:24:55;7.45;;;4.22;;
9729;SDS011;4904;49.152;11.004;2022-10-31T11:27:23;11.40;;;4.28;;
9729;SDS011;4904;49.152;11.004;2022-10-31T11:29:51;8.32;;;3.72;;
9729;SDS011;4904;49.152;11.004;2022-10-31T11:32:19;8.23;;;3.63;;
9729;SDS011;4904;49.152;11.004;2022-10-31T11:34:48;6.93;;;3.72;;
9729;SDS011;4904;49.152;11.004;2022-10-31T11:37:18;12.40;;;3.65;;
9729;SDS011;4904;49.152;11.004;2022-10-31T11:39:51;8.85;;;3.42;;
9729;SDS011;4904;49.152;11.004;2022-10-31T11:42:20;6.80;;;3.80;;
9729;SDS011;4904;49.152;11.004;2022-10-31T11:44:49;8.25;;;4.10;;
9729;SDS011;4904;49.152;11.004;2022-10-31T11:47:26;6.38;;;3.42;;
9729;SDS011;4904;49.152;11.004;2022-10-31T11:49:54;10.00;;;3.03;;
9729;SDS011;4904;49.152;11.004;2022-10-31T11:52:23;11.40;;;3.30;;
9729;SDS011;4904;49.152;11.004;2022-10-31T11:54:54;7.85;;;3.80;;
9729;SDS011;4904;49.152;11.004;2022-10-31T11:57:24;8.77;;;3.63;;
9729;SDS011;4904;49.152;11.004;2022-10-31T11:59:53;7.60;;;3.15;;
9729;SDS011;4904;49.152;11.004;2022-10-31T12:02:21;5.20;;;3.17;;
9729;SDS011;4904;49.152;11.004;2022-10-31T12:04:50;10.65;;;3.88;;
9729;SDS011;4904;49.152;11.004;2022-10-31T12:07:21;5.90;;;3.08;;
9729;SDS011;4904;49.152;11.004;2022-10-31T12:09:49;6.80;;;3.28;;
9729;SDS011;4904;49.152;11.004;2022-10-31T12:12:32;6.65;;;3.00;;
9729;SDS011;4904;49.152;11.004;2022-10-31T12:15:10;7.97;;;3.55;;
9729;SDS011;4904;49.152;11.004;2022-10-31T12:17:48;7.25;;;2.95;;
9729;SDS011;4904;49.152;11.004;2022-10-31T12:20:34;11.75;;;3.20;;
9729;SDS011;4904;49.152;11.004;2022-10-31T12:23:13;4.95;;;3.13;;
9729;SDS011;4904;49.152;11.004;2022-10-31T12:25:50;8.77;;;3.55;;
9729;SDS011;4904;49.152;11.004;2022-10-31T12:28:32;8.23;;;3.42;;
9729;SDS011;4904;49.152;11.004;2022-10-31T12:31:11;6.20;;;3.60;;
9729;SDS011;4904;49.152;11.004;2022-10-31T12:33:52;10.90;;;3.42;;
9729;SDS011;4904;49.152;11.004;2022-10-31T12:36:29;5.18;;;3.03;;
9729;SDS011;4904;49.152;11.004;2022-10-31T12:39:18;6.07;;;3.17;;
9729;SDS011;4904;49.152;11.004;2022-10-31T12:41:57;9.32;;;3.50;;
9729;SDS011;4904;49.152;11.004;2022-10-31T12:47:46;6.55;;;3.20;;
9729;SDS011;4904;49.152;11.004;2022-10-31T12:50:28;7.80;;;3.38;;
9729;SDS011;4904;49.152;11.004;2022-10-31T12:53:10;5.90;;;3.40;;
9729;SDS011;4904;49.152;11.004;2022-10-31T12:55:49;8.95;;;3.67;;
9729;SDS011;4904;49.152;11.004;2022-10-31T12:58:23;9.40;;;3.63;;
9729;SDS011;4904;49.152;11.004;2022-10-31T13:00:56;6.93;;;3.40;;
9729;SDS011;4904;49.152;11.004;2022-10-31T13:03:32;8.52;;;4.03;;
9729;SDS011;4904;49.152;11.004;2022-10-31T13:06:07;7.90;;;3.30;;
9729;SDS011;4904;49.152;11.004;2022-10-31T13:08:40;10.93;;;3.80;;
9729;SDS011;4904;49.152;11.004;2022-10-31T13:11:11;6.30;;;3.70;;
9729;SDS011;4904;49.152;11.004;2022-10-31T13:13:42;6.45;;;3.70;;
9729;SDS011;4904;49.152;11.004;2022-10-31T13:16:22;8.35;;;3.50;;
9729;SDS011;4904;49.152;11.004;2022-10-31T13:18:52;8.98;;;3.45;;
9729;SDS011;4904;49.152;11.004;2022-10-31T13:21:25;7.47;;;3.88;;
9729;SDS011;4904;49.152;11.004;2022-10-31T13:23:57;5.95;;;3.50;;
9729;SDS011;4904;49.152;11.004;2022-10-31T13:26:30;12.27;;;3.80;;
9729;SDS011;4904;49.152;11.004;2022-10-31T13:29:04;11.35;;;3.78;;
9729;SDS011;4904;49.152;11.004;2022-10-31T13:31:40;8.23;;;3.85;;
9729;SDS011;4904;49.152;11.004;2022-10-31T13:34:10;12.88;;;3.83;;
9729;SDS011;4904;49.152;11.004;2022-10-31T13:36:53;10.00;;;3.90;;
9729;SDS011;4904;49.152;11.004;2022-10-31T13:39:30;6.72;;;3.47;;
9729;SDS011;4904;49.152;11.004;2022-10-31T13:42:18;7.68;;;3.80;;
9729;SDS011;4904;49.152;11.004;2022-10-31T13:44:50;8.07;;;3.30;;
9729;SDS011;4904;49.152;11.004;2022-10-31T13:47:22;8.27;;;4.13;;
9729;SDS011;4904;49.152;11.004;2022-10-31T13:49:51;9.43;;;4.35;;
9729;SDS011;4904;49.152;11.004;2022-10-31T13:52:29;9.70;;;4.10;;
9729;SDS011;4904;49.152;11.004;2022-10-31T13:54:56;7.80;;;3.92;;
9729;SDS011;4904;49.152;11.004;2022-10-31T13:57:25;13.32;;;5.40;;
9729;SDS011;4904;49.152;11.004;2022-10-31T13:59:58;11.43;;;4.38;;
9729;SDS011;4904;49.152;11.004;2022-10-31T14:02:29;10.40;;;4.20;;
9729;SDS011;4904;49.152;11.004;2022-10-31T14:04:58;9.88;;;4.72;;
9729;SDS011;4904;49.152;11.004;2022-10-31T14:07:28;13.57;;;4.35;;
9729;SDS011;4904;49.152;11.004;2022-10-31T14:09:57;8.75;;;4.15;;
9729;SDS011;4904;49.152;11.004;2022-10-31T14:12:28;12.95;;;5.40;;
9729;SDS011;4904;49.152;11.004;2022-10-31T14:14:58;9.75;;;5.00;;
9729;SDS011;4904;49.152;11.004;2022-10-31T14:17:33;8.82;;;4.75;;
9729;SDS011;4904;49.152;11.004;2022-10-31T14:20:23;13.32;;;4.55;;
9729;SDS011;4904;49.152;11.004;2022-10-31T14:23:12;9.68;;;4.40;;
9729;SDS011;4904;49.152;11.004;2022-10-31T14:25:54;11.00;;;4.40;;
9729;SDS011;4904;49.152;11.004;2022-10-31T14:28:33;9.68;;;4.32;;
9729;SDS011;4904;49.152;11.004;2022-10-31T14:31:01;8.30;;;4.22;;
9729;SDS011;4904;49.152;11.004;2022-10-31T14:33:29;10.02;;;4.78;;
9729;SDS011;4904;49.152;11.004;2022-10-31T14:36:00;9.00;;;4.70;;
9729;SDS011;4904;49.152;11.004;2022-10-31T14:38:33;10.23;;;4.93;;
9729;SDS011;4904;49.152;11.004;2022-10-31T14:41:18;10.15;;;4.18;;
9729;SDS011;4904;49.152;11.004;2022-10-31T14:44:13;8.60;;;4.50;;
9729;SDS011;4904;49.152;11.004;2022-10-31T14:47:02;9.35;;;4.32;;
9729;SDS011;4904;49.152;11.004;2022-10-31T14:49:43;9.20;;;4.35;;
9729;SDS011;4904;49.152;11.004;2022-10-31T14:52:22;12.70;;;4.43;;
9729;SDS011;4904;49.152;11.004;2022-10-31T14:54:50;8.38;;;4.28;;
9729;SDS011;4904;49.152;11.004;2022-10-31T14:57:20;10.20;;;4.10;;
9729;SDS011;4904;49.152;11.004;2022-10-31T14:59:52;10.57;;;4.50;;
9729;SDS011;4904;49.152;11.004;2022-10-31T15:02:23;9.43;;;4.40;;
9729;SDS011;4904;49.152;11.004;2022-10-31T15:04:54;11.10;;;5.32;;
9729;SDS011;4904;49.152;11.004;2022-10-31T15:07:24;14.13;;;5.03;;
9729;SDS011;4904;49.152;11.004;2022-10-31T15:09:55;14.18;;;4.90;;
9729;SDS011;4904;49.152;11.004;2022-10-31T15:12:25;13.85;;;4.93;;
9729;SDS011;4904;49.152;11.004;2022-10-31T15:14:54;11.35;;;4.63;;
9729;SDS011;4904;49.152;11.004;2022-10-31T15:17:21;13.68;;;4.47;;
9729;SDS011;4904;49.152;11.004;2022-10-31T15:19:50;13.52;;;7.13;;
9729;SDS011;4904;49.152;11.004;2022-10-31T15:22:23;17.42;;;10.20;;
9729;SDS011;4904;49.152;11.004;2022-10-31T15:24:52;10.88;;;6.47;;